ORT04A EGNV-EGHH
Flight info
| Callsign | ORT04A |
|---|---|
| Flight time | 1h 1m |
| Altitude | 39000 |
| Route | GASKO P16 RIBEL UP16 CROFT DCT KEPAD L151 PEPUL Y322 BUGUP |
| Aircraft | C25C/L-SDE2E3FGHRWXY/LB1 |
Departure
| Time | 2026-05-05 17:52 |
|---|---|
| Airport | Teesside International Airport (EGNV) |
Arrival
| Time | 2026-05-05 18:53 |
|---|---|
| Airport | Bournemouth Airport (EGHH) |
| Time | Latitude | Longitude | Altitude | Speed | Heading |
|---|---|---|---|---|---|
| 2026-05-05 17:38 | 54.51192 | -1.42844 | 109 ft | 0 kts | 149° |
| 2026-05-05 17:40 | 54.51193 | -1.42845 | 109 ft | 0 kts | 331° |
| 2026-05-05 17:48 | 54.51196 | -1.42848 | 107 ft | 3 kts | 331° |
| 2026-05-05 17:48 | 54.51212 | -1.42917 | 109 ft | 9 kts | 239° |
| 2026-05-05 17:48 | 54.51175 | -1.43022 | 108 ft | 11 kts | 239° |
| 2026-05-05 17:49 | 54.51133 | -1.43134 | 109 ft | 11 kts | 212° |
| 2026-05-05 17:49 | 54.51064 | -1.43203 | 108 ft | 12 kts | 225° |
| 2026-05-05 17:49 | 54.51020 | -1.43326 | 109 ft | 13 kts | 238° |
| 2026-05-05 17:49 | 54.50976 | -1.43465 | 108 ft | 14 kts | 242° |
| 2026-05-05 17:50 | 54.50920 | -1.43606 | 109 ft | 15 kts | 226° |
| 2026-05-05 17:50 | 54.50839 | -1.43719 | 109 ft | 15 kts | 210° |
| 2026-05-05 17:50 | 54.50756 | -1.43769 | 109 ft | 10 kts | 181° |
| 2026-05-05 17:50 | 54.50689 | -1.43807 | 108 ft | 11 kts | 218° |
| 2026-05-05 17:51 | 54.50625 | -1.43928 | 109 ft | 17 kts | 228° |
| 2026-05-05 17:51 | 54.50533 | -1.44100 | 109 ft | 22 kts | 228° |
| 2026-05-05 17:51 | 54.50425 | -1.44301 | 109 ft | 23 kts | 225° |
| 2026-05-05 17:51 | 54.50289 | -1.44329 | 110 ft | 21 kts | 139° |
| 2026-05-05 17:52 | 54.50244 | -1.44201 | 114 ft | 4 kts | 37° |
| 2026-05-05 17:52 | 54.50271 | -1.44150 | 115 ft | 35 kts | 46° |
| 2026-05-05 17:52 | 54.50691 | -1.43362 | 171 ft | 137 kts | 47° |
| 2026-05-05 17:52 | 54.51461 | -1.41912 | 868 ft | 192 kts | 46° |
| 2026-05-05 17:53 | 54.52376 | -1.40198 | 2055 ft | 197 kts | 45° |
| 2026-05-05 17:53 | 54.53514 | -1.38806 | 2976 ft | 211 kts | 12° |
| 2026-05-05 17:53 | 54.54942 | -1.39343 | 4027 ft | 223 kts | 328° |
| 2026-05-05 17:53 | 54.55809 | -1.41593 | 5098 ft | 236 kts | 285° |
| 2026-05-05 17:54 | 54.55596 | -1.44389 | 6270 ft | 243 kts | 244° |
| 2026-05-05 17:54 | 54.54377 | -1.46406 | 7332 ft | 252 kts | 211° |
| 2026-05-05 17:54 | 54.52861 | -1.47923 | 8336 ft | 252 kts | 219° |
| 2026-05-05 17:54 | 54.51937 | -1.49151 | 9029 ft | 254 kts | 222° |
| 2026-05-05 17:55 | 54.50588 | -1.51132 | 10085 ft | 256 kts | 225° |
| 2026-05-05 17:55 | 54.49292 | -1.53264 | 11096 ft | 259 kts | 228° |
| 2026-05-05 17:55 | 54.47988 | -1.55430 | 12147 ft | 262 kts | 226° |
| 2026-05-05 17:55 | 54.46652 | -1.57586 | 13242 ft | 265 kts | 226° |
| 2026-05-05 17:56 | 54.45290 | -1.59754 | 14317 ft | 268 kts | 226° |
| 2026-05-05 17:56 | 54.43887 | -1.61974 | 15051 ft | 287 kts | 226° |
| 2026-05-05 17:56 | 54.42329 | -1.64447 | 15084 ft | 323 kts | 225° |
| 2026-05-05 17:56 | 54.40601 | -1.67192 | 15081 ft | 352 kts | 225° |
| 2026-05-05 17:57 | 54.38747 | -1.70121 | 15154 ft | 370 kts | 225° |
| 2026-05-05 17:57 | 54.36898 | -1.73021 | 15281 ft | 365 kts | 225° |
| 2026-05-05 17:57 | 54.35052 | -1.75903 | 16479 ft | 347 kts | 225° |
| 2026-05-05 17:57 | 54.33307 | -1.78622 | 17957 ft | 331 kts | 225° |
| 2026-05-05 17:58 | 54.31633 | -1.81230 | 19226 ft | 320 kts | 225° |
| 2026-05-05 17:58 | 54.30002 | -1.83776 | 20260 ft | 317 kts | 225° |
| 2026-05-05 17:58 | 54.28367 | -1.86338 | 21081 ft | 320 kts | 225° |
| 2026-05-05 17:58 | 54.26722 | -1.88921 | 21848 ft | 324 kts | 225° |
| 2026-05-05 17:59 | 54.25061 | -1.91561 | 22593 ft | 327 kts | 226° |
| 2026-05-05 17:59 | 54.23420 | -1.94286 | 23325 ft | 330 kts | 226° |
| 2026-05-05 17:59 | 54.21745 | -1.97012 | 23960 ft | 335 kts | 225° |
| 2026-05-05 17:59 | 54.20041 | -1.99756 | 24534 ft | 337 kts | 225° |
| 2026-05-05 18:00 | 54.18319 | -2.02511 | 25108 ft | 340 kts | 225° |
| 2026-05-05 18:00 | 54.16602 | -2.05245 | 25649 ft | 343 kts | 225° |
| 2026-05-05 18:00 | 54.14849 | -2.08030 | 26189 ft | 346 kts | 224° |
| 2026-05-05 18:00 | 54.13077 | -2.10841 | 26716 ft | 349 kts | 224° |
| 2026-05-05 18:01 | 54.11293 | -2.13669 | 27225 ft | 352 kts | 224° |
| 2026-05-05 18:01 | 54.09492 | -2.16525 | 27722 ft | 355 kts | 224° |
| 2026-05-05 18:01 | 54.07675 | -2.19405 | 28223 ft | 357 kts | 224° |
| 2026-05-05 18:01 | 54.05851 | -2.22290 | 28820 ft | 356 kts | 224° |
| 2026-05-05 18:02 | 54.04037 | -2.25156 | 29450 ft | 356 kts | 224° |
| 2026-05-05 18:02 | 54.02215 | -2.28001 | 30088 ft | 355 kts | 221° |
| 2026-05-05 18:02 | 54.00155 | -2.29983 | 30594 ft | 356 kts | 204° |
| 2026-05-05 18:02 | 53.97843 | -2.31512 | 31126 ft | 356 kts | 201° |
| 2026-05-05 18:03 | 53.95506 | -2.32910 | 31656 ft | 356 kts | 201° |
| 2026-05-05 18:03 | 53.93210 | -2.34328 | 32189 ft | 355 kts | 202° |
| 2026-05-05 18:03 | 53.90900 | -2.35795 | 32725 ft | 355 kts | 202° |
| 2026-05-05 18:03 | 53.88603 | -2.37318 | 33271 ft | 354 kts | 203° |
| 2026-05-05 18:04 | 53.86309 | -2.38816 | 33833 ft | 354 kts | 202° |
| 2026-05-05 18:04 | 53.84008 | -2.40298 | 34332 ft | 353 kts | 202° |
| 2026-05-05 18:04 | 53.81703 | -2.41774 | 34767 ft | 354 kts | 202° |
| 2026-05-05 18:04 | 53.79389 | -2.43250 | 35202 ft | 355 kts | 202° |
| 2026-05-05 18:05 | 53.77067 | -2.44727 | 35639 ft | 356 kts | 202° |
| 2026-05-05 18:05 | 53.74751 | -2.46200 | 36072 ft | 356 kts | 202° |
| 2026-05-05 18:05 | 53.72429 | -2.47676 | 36511 ft | 357 kts | 202° |
| 2026-05-05 18:05 | 53.70130 | -2.49137 | 36937 ft | 357 kts | 202° |
| 2026-05-05 18:06 | 53.67797 | -2.50619 | 37367 ft | 358 kts | 202° |
| 2026-05-05 18:06 | 53.66220 | -2.51622 | 37651 ft | 358 kts | 202° |
| 2026-05-05 18:06 | 53.63119 | -2.53527 | 38211 ft | 360 kts | 196° |
| 2026-05-05 18:06 | 53.60616 | -2.53850 | 38612 ft | 364 kts | 181° |
| 2026-05-05 18:07 | 53.58074 | -2.53653 | 38948 ft | 365 kts | 178° |
| 2026-05-05 18:07 | 53.52893 | -2.53085 | 39030 ft | 382 kts | 179° |
| 2026-05-05 18:08 | 53.47463 | -2.52760 | 39029 ft | 398 kts | 179° |
| 2026-05-05 18:08 | 53.41844 | -2.52355 | 39029 ft | 410 kts | 179° |
| 2026-05-05 18:09 | 53.36103 | -2.51909 | 39028 ft | 419 kts | 179° |
| 2026-05-05 18:09 | 53.30221 | -2.51458 | 39031 ft | 426 kts | 179° |
| 2026-05-05 18:10 | 53.24251 | -2.51011 | 39026 ft | 432 kts | 179° |
| 2026-05-05 18:10 | 53.18213 | -2.50568 | 39032 ft | 436 kts | 179° |
| 2026-05-05 18:11 | 53.12127 | -2.50125 | 39023 ft | 439 kts | 179° |
| 2026-05-05 18:11 | 53.06004 | -2.49682 | 39022 ft | 441 kts | 179° |
| 2026-05-05 18:12 | 52.99852 | -2.49235 | 39023 ft | 443 kts | 179° |
| 2026-05-05 18:12 | 52.93685 | -2.48789 | 39021 ft | 444 kts | 179° |
| 2026-05-05 18:13 | 52.87498 | -2.48345 | 39018 ft | 445 kts | 179° |
| 2026-05-05 18:13 | 52.81317 | -2.47526 | 39015 ft | 447 kts | 165° |
| 2026-05-05 18:13 | 52.78516 | -2.45367 | 39023 ft | 444 kts | 150° |
| 2026-05-05 18:14 | 52.75963 | -2.42618 | 39027 ft | 442 kts | 147° |
| 2026-05-05 18:14 | 52.70996 | -2.36775 | 39016 ft | 435 kts | 147° |
| 2026-05-05 18:15 | 52.65953 | -2.31374 | 39006 ft | 429 kts | 148° |
| 2026-05-05 18:15 | 52.63466 | -2.28675 | 38897 ft | 429 kts | 147° |
| 2026-05-05 18:15 | 52.60948 | -2.25842 | 38171 ft | 444 kts | 147° |
| 2026-05-05 18:15 | 52.58356 | -2.22965 | 37406 ft | 454 kts | 147° |
| 2026-05-05 18:16 | 52.55756 | -2.20105 | 36667 ft | 444 kts | 147° |
| 2026-05-05 18:16 | 52.53218 | -2.17327 | 35943 ft | 431 kts | 148° |
| 2026-05-05 18:16 | 52.50758 | -2.14646 | 35242 ft | 419 kts | 148° |
| 2026-05-05 18:16 | 52.48352 | -2.12030 | 34560 ft | 409 kts | 148° |
| 2026-05-05 18:17 | 52.46032 | -2.09514 | 33874 ft | 400 kts | 148° |
| 2026-05-05 18:17 | 52.43731 | -2.07020 | 33096 ft | 392 kts | 148° |
| 2026-05-05 18:17 | 52.41474 | -2.04587 | 32339 ft | 385 kts | 148° |
| 2026-05-05 18:17 | 52.39258 | -2.02200 | 31602 ft | 378 kts | 148° |
| 2026-05-05 18:18 | 52.37081 | -1.99846 | 30896 ft | 372 kts | 149° |
| 2026-05-05 18:18 | 52.34944 | -1.97526 | 30221 ft | 365 kts | 149° |
| 2026-05-05 18:18 | 52.32844 | -1.95246 | 29469 ft | 360 kts | 149° |
| 2026-05-05 18:18 | 52.30770 | -1.93004 | 28713 ft | 354 kts | 149° |
| 2026-05-05 18:19 | 52.28723 | -1.90803 | 27985 ft | 349 kts | 149° |
| 2026-05-05 18:19 | 52.26695 | -1.88669 | 27282 ft | 344 kts | 152° |
| 2026-05-05 18:19 | 52.24582 | -1.86940 | 26612 ft | 338 kts | 159° |
| 2026-05-05 18:19 | 52.22419 | -1.85491 | 25968 ft | 334 kts | 161° |
| 2026-05-05 18:20 | 52.20266 | -1.84133 | 25337 ft | 330 kts | 162° |
| 2026-05-05 18:20 | 52.18128 | -1.82765 | 24731 ft | 328 kts | 161° |
| 2026-05-05 18:20 | 52.16032 | -1.81322 | 24145 ft | 326 kts | 159° |
| 2026-05-05 18:20 | 52.13967 | -1.79819 | 23571 ft | 324 kts | 159° |
| 2026-05-05 18:21 | 52.11861 | -1.78329 | 22955 ft | 334 kts | 159° |
| 2026-05-05 18:21 | 52.09698 | -1.76822 | 22354 ft | 340 kts | 159° |
| 2026-05-05 18:21 | 52.07545 | -1.75330 | 21688 ft | 333 kts | 159° |
| 2026-05-05 18:21 | 52.05414 | -1.73858 | 20914 ft | 332 kts | 159° |
| 2026-05-05 18:22 | 52.03316 | -1.72410 | 20169 ft | 330 kts | 159° |
| 2026-05-05 18:22 | 52.01202 | -1.70953 | 19415 ft | 329 kts | 159° |
| 2026-05-05 18:22 | 51.99099 | -1.69504 | 18685 ft | 327 kts | 159° |
| 2026-05-05 18:22 | 51.97008 | -1.68066 | 17937 ft | 326 kts | 159° |
| 2026-05-05 18:23 | 51.94924 | -1.66633 | 17132 ft | 324 kts | 159° |
| 2026-05-05 18:23 | 51.92857 | -1.65212 | 16351 ft | 323 kts | 159° |
| 2026-05-05 18:23 | 51.90793 | -1.63792 | 15586 ft | 321 kts | 159° |
| 2026-05-05 18:23 | 51.88741 | -1.62379 | 14839 ft | 320 kts | 159° |
| 2026-05-05 18:24 | 51.86720 | -1.60878 | 14005 ft | 322 kts | 154° |
| 2026-05-05 18:24 | 51.84802 | -1.59047 | 13512 ft | 313 kts | 149° |
| 2026-05-05 18:24 | 51.83007 | -1.57187 | 13190 ft | 300 kts | 148° |
| 2026-05-05 18:24 | 51.81272 | -1.55418 | 12858 ft | 290 kts | 150° |
| 2026-05-05 18:25 | 51.79565 | -1.53748 | 12533 ft | 283 kts | 150° |
| 2026-05-05 18:25 | 51.78442 | -1.52699 | 12316 ft | 280 kts | 152° |
| 2026-05-05 18:25 | 51.76234 | -1.50626 | 11898 ft | 274 kts | 151° |
| 2026-05-05 18:25 | 51.74600 | -1.49073 | 11582 ft | 271 kts | 150° |
| 2026-05-05 18:26 | 51.72980 | -1.47525 | 11273 ft | 269 kts | 150° |
| 2026-05-05 18:26 | 51.71373 | -1.45987 | 10997 ft | 266 kts | 150° |
| 2026-05-05 18:26 | 51.69813 | -1.44487 | 10960 ft | 255 kts | 150° |
| 2026-05-05 18:26 | 51.68257 | -1.43249 | 10957 ft | 244 kts | 159° |
| 2026-05-05 18:27 | 51.66694 | -1.42337 | 10955 ft | 235 kts | 162° |
| 2026-05-05 18:27 | 51.65164 | -1.41525 | 10954 ft | 228 kts | 163° |
| 2026-05-05 18:27 | 51.63677 | -1.40725 | 10953 ft | 222 kts | 162° |
| 2026-05-05 18:27 | 51.62234 | -1.39903 | 10953 ft | 218 kts | 161° |
| 2026-05-05 18:28 | 51.59455 | -1.38272 | 10932 ft | 210 kts | 161° |
| 2026-05-05 18:28 | 51.58089 | -1.37462 | 10935 ft | 207 kts | 161° |
| 2026-05-05 18:28 | 51.56744 | -1.36665 | 10941 ft | 204 kts | 161° |
| 2026-05-05 18:29 | 51.55417 | -1.35884 | 10935 ft | 202 kts | 161° |
| 2026-05-05 18:29 | 51.54104 | -1.35108 | 10937 ft | 200 kts | 161° |
| 2026-05-05 18:29 | 51.52806 | -1.34342 | 10931 ft | 198 kts | 161° |
| 2026-05-05 18:29 | 51.51513 | -1.33582 | 10933 ft | 196 kts | 161° |
| 2026-05-05 18:30 | 51.50236 | -1.32831 | 10936 ft | 194 kts | 161° |
| 2026-05-05 18:30 | 51.48963 | -1.32086 | 10938 ft | 196 kts | 161° |
| 2026-05-05 18:30 | 51.47647 | -1.31314 | 10949 ft | 209 kts | 161° |
| 2026-05-05 18:30 | 51.47199 | -1.31052 | 10952 ft | 214 kts | 161° |
| 2026-05-05 18:31 | 51.46810 | -1.30825 | 10954 ft | 219 kts | 161° |
| 2026-05-05 18:31 | 51.45408 | -1.30008 | 10959 ft | 233 kts | 161° |
| 2026-05-05 18:31 | 51.43834 | -1.29090 | 10958 ft | 248 kts | 161° |
| 2026-05-05 18:31 | 51.42180 | -1.28126 | 10953 ft | 255 kts | 160° |
| 2026-05-05 18:32 | 51.40509 | -1.27150 | 10953 ft | 256 kts | 160° |
| 2026-05-05 18:32 | 51.38853 | -1.26182 | 10948 ft | 257 kts | 160° |
| 2026-05-05 18:32 | 51.37167 | -1.25197 | 10944 ft | 258 kts | 160° |
| 2026-05-05 18:32 | 51.35480 | -1.24211 | 10944 ft | 258 kts | 160° |
| 2026-05-05 18:33 | 51.33781 | -1.23293 | 10942 ft | 258 kts | 170° |
| 2026-05-05 18:33 | 51.31996 | -1.23310 | 10948 ft | 257 kts | 185° |
| 2026-05-05 18:33 | 51.30209 | -1.23488 | 10945 ft | 258 kts | 184° |
| 2026-05-05 18:33 | 51.28419 | -1.23633 | 10942 ft | 258 kts | 184° |
| 2026-05-05 18:34 | 51.26625 | -1.23771 | 10939 ft | 258 kts | 184° |
| 2026-05-05 18:34 | 51.24829 | -1.23912 | 10939 ft | 258 kts | 184° |
| 2026-05-05 18:34 | 51.23009 | -1.24059 | 10714 ft | 266 kts | 184° |
| 2026-05-05 18:34 | 51.21134 | -1.24217 | 10428 ft | 273 kts | 184° |
| 2026-05-05 18:35 | 51.19215 | -1.24453 | 10147 ft | 279 kts | 189° |
| 2026-05-05 18:35 | 51.17334 | -1.25127 | 9858 ft | 271 kts | 196° |
| 2026-05-05 18:35 | 51.15596 | -1.25921 | 9524 ft | 250 kts | 198° |
| 2026-05-05 18:35 | 51.13981 | -1.26702 | 9191 ft | 236 kts | 198° |
| 2026-05-05 18:36 | 51.12441 | -1.27442 | 8859 ft | 227 kts | 197° |
| 2026-05-05 18:36 | 51.10940 | -1.28086 | 8530 ft | 220 kts | 195° |
| 2026-05-05 18:36 | 51.09475 | -1.28685 | 8209 ft | 215 kts | 195° |
| 2026-05-05 18:36 | 51.08017 | -1.29293 | 7919 ft | 219 kts | 195° |
| 2026-05-05 18:37 | 51.06536 | -1.29918 | 7629 ft | 221 kts | 195° |
| 2026-05-05 18:37 | 51.05089 | -1.30770 | 7331 ft | 223 kts | 207° |
| 2026-05-05 18:37 | 51.03709 | -1.31908 | 7048 ft | 224 kts | 209° |
| 2026-05-05 18:37 | 51.02346 | -1.33108 | 6766 ft | 224 kts | 210° |
| 2026-05-05 18:38 | 51.01448 | -1.33917 | 6579 ft | 224 kts | 210° |
| 2026-05-05 18:38 | 50.99656 | -1.35552 | 6192 ft | 224 kts | 210° |
| 2026-05-05 18:38 | 50.98307 | -1.36794 | 5883 ft | 224 kts | 210° |
| 2026-05-05 18:38 | 50.96958 | -1.38040 | 5578 ft | 224 kts | 211° |
| 2026-05-05 18:39 | 50.96046 | -1.38881 | 5367 ft | 224 kts | 211° |
| 2026-05-05 18:39 | 50.94713 | -1.40111 | 5072 ft | 224 kts | 210° |
| 2026-05-05 18:39 | 50.93391 | -1.41330 | 5001 ft | 213 kts | 211° |
| 2026-05-05 18:39 | 50.92140 | -1.42477 | 5000 ft | 201 kts | 210° |
| 2026-05-05 18:40 | 50.90949 | -1.43566 | 4996 ft | 196 kts | 211° |
| 2026-05-05 18:40 | 50.89762 | -1.44648 | 4999 ft | 198 kts | 210° |
| 2026-05-05 18:40 | 50.88565 | -1.45741 | 4998 ft | 199 kts | 211° |
| 2026-05-05 18:40 | 50.87360 | -1.46837 | 4999 ft | 200 kts | 210° |
| 2026-05-05 18:41 | 50.86154 | -1.47940 | 5000 ft | 201 kts | 211° |
| 2026-05-05 18:41 | 50.84941 | -1.49044 | 5014 ft | 201 kts | 211° |
| 2026-05-05 18:41 | 50.83726 | -1.50154 | 5013 ft | 202 kts | 210° |
| 2026-05-05 18:41 | 50.82502 | -1.51269 | 5007 ft | 203 kts | 210° |
| 2026-05-05 18:42 | 50.81271 | -1.52388 | 5013 ft | 204 kts | 210° |
| 2026-05-05 18:42 | 50.80040 | -1.53512 | 5010 ft | 205 kts | 210° |
| 2026-05-05 18:42 | 50.78802 | -1.54640 | 5014 ft | 205 kts | 210° |
| 2026-05-05 18:42 | 50.77560 | -1.55772 | 5009 ft | 206 kts | 210° |
| 2026-05-05 18:43 | 50.76329 | -1.56890 | 5010 ft | 207 kts | 211° |
| 2026-05-05 18:43 | 50.75268 | -1.58377 | 4909 ft | 209 kts | 245° |
| 2026-05-05 18:43 | 50.74784 | -1.60601 | 4622 ft | 221 kts | 255° |
| 2026-05-05 18:43 | 50.74299 | -1.62978 | 4328 ft | 232 kts | 255° |
| 2026-05-05 18:44 | 50.73805 | -1.65435 | 4024 ft | 234 kts | 255° |
| 2026-05-05 18:44 | 50.73330 | -1.67874 | 3711 ft | 230 kts | 257° |
| 2026-05-05 18:44 | 50.72944 | -1.70251 | 3391 ft | 218 kts | 259° |
| 2026-05-05 18:44 | 50.72597 | -1.72535 | 3066 ft | 211 kts | 259° |
| 2026-05-05 18:45 | 50.72269 | -1.74752 | 3012 ft | 205 kts | 260° |
| 2026-05-05 18:45 | 50.71949 | -1.76920 | 3004 ft | 201 kts | 260° |
| 2026-05-05 18:45 | 50.71631 | -1.79053 | 2998 ft | 198 kts | 260° |
| 2026-05-05 18:45 | 50.71321 | -1.81155 | 3000 ft | 195 kts | 260° |
| 2026-05-05 18:46 | 50.71012 | -1.83225 | 2999 ft | 193 kts | 260° |
| 2026-05-05 18:46 | 50.70711 | -1.85249 | 3008 ft | 190 kts | 260° |
| 2026-05-05 18:46 | 50.70404 | -1.87272 | 3013 ft | 188 kts | 260° |
| 2026-05-05 18:46 | 50.70100 | -1.89273 | 3009 ft | 187 kts | 260° |
| 2026-05-05 18:47 | 50.69801 | -1.91263 | 3006 ft | 185 kts | 260° |
| 2026-05-05 18:47 | 50.69495 | -1.93268 | 2804 ft | 189 kts | 260° |
| 2026-05-05 18:47 | 50.69186 | -1.95267 | 2564 ft | 185 kts | 260° |
| 2026-05-05 18:47 | 50.68877 | -1.97222 | 2378 ft | 182 kts | 260° |
| 2026-05-05 18:48 | 50.68577 | -1.99138 | 2161 ft | 178 kts | 264° |
| 2026-05-05 18:48 | 50.68807 | -2.00896 | 1950 ft | 160 kts | 317° |
| 2026-05-05 18:48 | 50.69749 | -2.01681 | 1769 ft | 154 kts | 342° |
| 2026-05-05 18:48 | 50.70748 | -2.02253 | 1704 ft | 151 kts | 343° |
| 2026-05-05 18:49 | 50.71735 | -2.02777 | 1713 ft | 148 kts | 344° |
| 2026-05-05 18:49 | 50.72711 | -2.03272 | 1722 ft | 147 kts | 345° |
| 2026-05-05 18:49 | 50.73687 | -2.03583 | 1722 ft | 144 kts | 11° |
| 2026-05-05 18:49 | 50.74437 | -2.02574 | 1727 ft | 148 kts | 52° |
| 2026-05-05 18:50 | 50.74944 | -2.01156 | 1714 ft | 148 kts | 59° |
| 2026-05-05 18:50 | 50.75379 | -1.99703 | 1713 ft | 144 kts | 62° |
| 2026-05-05 18:50 | 50.75731 | -1.98232 | 1644 ft | 142 kts | 69° |
| 2026-05-05 18:50 | 50.75979 | -1.96736 | 1532 ft | 140 kts | 72° |
| 2026-05-05 18:51 | 50.76187 | -1.95217 | 1405 ft | 143 kts | 72° |
| 2026-05-05 18:51 | 50.76423 | -1.93701 | 1229 ft | 134 kts | 70° |
| 2026-05-05 18:51 | 50.76652 | -1.92392 | 1055 ft | 115 kts | 70° |
| 2026-05-05 18:51 | 50.76853 | -1.91232 | 864 ft | 106 kts | 70° |
| 2026-05-05 18:52 | 50.77026 | -1.90076 | 720 ft | 107 kts | 73° |
| 2026-05-05 18:52 | 50.77218 | -1.88912 | 558 ft | 111 kts | 70° |
| 2026-05-05 18:52 | 50.77419 | -1.87750 | 413 ft | 107 kts | 69° |
| 2026-05-05 18:52 | 50.77616 | -1.86633 | 253 ft | 104 kts | 73° |
| 2026-05-05 18:53 | 50.77792 | -1.85565 | 135 ft | 99 kts | 71° |
| 2026-05-05 18:53 | 50.77963 | -1.84521 | 39 ft | 95 kts | 72° |
| 2026-05-05 18:53 | 50.78095 | -1.83752 | 36 ft | 55 kts | 78° |
| 2026-05-05 18:53 | 50.78161 | -1.83324 | 37 ft | 31 kts | 76° |
| 2026-05-05 18:54 | 50.78213 | -1.83012 | 34 ft | 28 kts | 74° |
| 2026-05-05 18:54 | 50.78258 | -1.82775 | 35 ft | 13 kts | 60° |
| 2026-05-05 18:54 | 50.78313 | -1.82754 | 34 ft | 10 kts | 319° |
| 2026-05-05 18:54 | 50.78360 | -1.82838 | 34 ft | 10 kts | 301° |
| 2026-05-05 18:55 | 50.78386 | -1.82891 | 34 ft | 6 kts | 345° |
| 2026-05-05 18:55 | 50.78428 | -1.82877 | 34 ft | 4 kts | 31° |
| 2026-05-05 18:55 | 50.78434 | -1.82847 | 34 ft | 3 kts | 96° |
| 2026-05-05 18:55 | 50.78437 | -1.82840 | 34 ft | 0 kts | 28° |
| 2026-05-05 18:56 | 50.78448 | -1.82832 | 34 ft | 0 kts | 19° |
| 2026-05-05 18:56 | 50.78450 | -1.82833 | 34 ft | 0 kts | 342° |
| 2026-05-05 18:56 | 50.78452 | -1.82838 | 34 ft | 0 kts | 292° |
| 2026-05-05 18:56 | 50.78451 | -1.82838 | 34 ft | 0 kts | 283° |